sensor_id;sensor_type;location;lat;lon;timestamp;pressure;altitude;pressure_sealevel;temperature;humidity
75668;BME280;64266;48.798;44.756;2024-02-28T00:03:32;103939.53;;;-6.50;48.53
75668;BME280;64266;48.798;44.756;2024-02-28T00:08:35;103926.34;;;-6.81;49.71
75668;BME280;64266;48.798;44.756;2024-02-28T00:13:38;103925.84;;;-7.01;48.89
75668;BME280;64266;48.798;44.756;2024-02-28T00:18:42;103908.06;;;-7.16;50.72
75668;BME280;64266;48.798;44.756;2024-02-28T00:23:46;103926.75;;;-7.03;50.78
75668;BME280;64266;48.798;44.756;2024-02-28T00:28:48;103914.00;;;-7.11;50.62
75668;BME280;64266;48.798;44.756;2024-02-28T00:33:52;103931.09;;;-7.05;50.75
75668;BME280;64266;48.798;44.756;2024-02-28T00:38:55;103919.91;;;-7.04;50.75
75668;BME280;64266;48.798;44.756;2024-02-28T00:43:58;103901.28;;;-7.20;49.19
75668;BME280;64266;48.798;44.756;2024-02-28T00:49:01;103944.03;;;-7.08;51.21
75668;BME280;64266;48.798;44.756;2024-02-28T00:54:04;103942.28;;;-7.06;49.17
75668;BME280;64266;48.798;44.756;2024-02-28T00:59:07;103914.97;;;-7.20;50.15
75668;BME280;64266;48.798;44.756;2024-02-28T01:04:13;103903.91;;;-7.25;50.43
75668;BME280;64266;48.798;44.756;2024-02-28T01:09:16;103940.69;;;-7.15;49.79
75668;BME280;64266;48.798;44.756;2024-02-28T01:14:19;103920.53;;;-7.42;49.28
75668;BME280;64266;48.798;44.756;2024-02-28T01:19:22;103925.03;;;-7.56;50.79
75668;BME280;64266;48.798;44.756;2024-02-28T01:24:25;103952.34;;;-7.45;50.10
75668;BME280;64266;48.798;44.756;2024-02-28T01:29:28;103951.59;;;-7.53;50.45
75668;BME280;64266;48.798;44.756;2024-02-28T01:34:32;103952.59;;;-7.61;50.98
75668;BME280;64266;48.798;44.756;2024-02-28T01:39:36;103941.53;;;-7.66;50.38
75668;BME280;64266;48.798;44.756;2024-02-28T01:44:43;103929.00;;;-7.92;50.18
75668;BME280;64266;48.798;44.756;2024-02-28T01:49:48;103952.91;;;-7.83;51.61
75668;BME280;64266;48.798;44.756;2024-02-28T01:54:53;103930.84;;;-8.00;50.86
75668;BME280;64266;48.798;44.756;2024-02-28T01:59:56;103961.72;;;-8.02;51.34
75668;BME280;64266;48.798;44.756;2024-02-28T02:04:59;103874.31;;;-8.75;52.21
75668;BME280;64266;48.798;44.756;2024-02-28T02:10:03;103944.94;;;-8.29;53.23
75668;BME280;64266;48.798;44.756;2024-02-28T02:15:13;103928.84;;;-8.44;52.36
75668;BME280;64266;48.798;44.756;2024-02-28T02:20:16;103968.47;;;-7.93;52.06
75668;BME280;64266;48.798;44.756;2024-02-28T02:25:21;103967.28;;;-7.68;52.48
75668;BME280;64266;48.798;44.756;2024-02-28T02:30:25;103955.41;;;-7.78;50.86
75668;BME280;64266;48.798;44.756;2024-02-28T02:35:28;103957.09;;;-7.76;50.47
75668;BME280;64266;48.798;44.756;2024-02-28T02:40:33;103972.69;;;-7.86;51.23
75668;BME280;64266;48.798;44.756;2024-02-28T02:45:36;103942.13;;;-8.12;50.44
75668;BME280;64266;48.798;44.756;2024-02-28T02:50:38;103970.34;;;-8.03;50.82
75668;BME280;64266;48.798;44.756;2024-02-28T02:55:42;103901.38;;;-8.45;51.19
75668;BME280;64266;48.798;44.756;2024-02-28T03:00:45;103975.56;;;-8.12;50.84
75668;BME280;64266;48.798;44.756;2024-02-28T03:05:48;103973.97;;;-8.20;51.54
75668;BME280;64266;48.798;44.756;2024-02-28T03:10:51;103941.00;;;-8.60;52.05
75668;BME280;64266;48.798;44.756;2024-02-28T03:15:54;103966.63;;;-8.49;50.17
75668;BME280;64266;48.798;44.756;2024-02-28T03:20:57;103966.72;;;-8.60;51.38
75668;BME280;64266;48.798;44.756;2024-02-28T03:26:01;103986.16;;;-8.32;52.41
75668;BME280;64266;48.798;44.756;2024-02-28T03:31:04;103964.91;;;-8.52;51.27
75668;BME280;64266;48.798;44.756;2024-02-28T03:36:07;103963.28;;;-8.57;50.95
75668;BME280;64266;48.798;44.756;2024-02-28T03:41:11;103989.75;;;-8.48;51.96
75668;BME280;64266;48.798;44.756;2024-02-28T03:46:15;103974.50;;;-8.64;50.67
75668;BME280;64266;48.798;44.756;2024-02-28T03:51:17;103959.19;;;-8.78;51.57
75668;BME280;64266;48.798;44.756;2024-02-28T03:56:24;103964.31;;;-8.76;51.51
75668;BME280;64266;48.798;44.756;2024-02-28T04:01:28;104019.75;;;-8.48;51.44
75668;BME280;64266;48.798;44.756;2024-02-28T04:06:33;104018.16;;;-8.58;50.61
75668;BME280;64266;48.798;44.756;2024-02-28T04:11:37;104033.59;;;-8.60;51.45
75668;BME280;64266;48.798;44.756;2024-02-28T04:16:42;104016.56;;;-8.73;51.50
75668;BME280;64266;48.798;44.756;2024-02-28T04:21:46;103968.81;;;-9.00;50.87
75668;BME280;64266;48.798;44.756;2024-02-28T04:26:49;104031.16;;;-8.72;51.03
75668;BME280;64266;48.798;44.756;2024-02-28T04:31:56;104037.97;;;-8.68;51.14
75668;BME280;64266;48.798;44.756;2024-02-28T04:36:59;104025.81;;;-8.54;51.64
75668;BME280;64266;48.798;44.756;2024-02-28T04:42:02;104019.88;;;-8.60;50.58
75668;BME280;64266;48.798;44.756;2024-02-28T04:47:05;104011.88;;;-8.32;50.20
75668;BME280;64266;48.798;44.756;2024-02-28T04:52:10;104006.94;;;-7.19;49.32
75668;BME280;64266;48.798;44.756;2024-02-28T04:57:14;104024.25;;;-6.27;46.96
75668;BME280;64266;48.798;44.756;2024-02-28T05:02:19;104021.00;;;-5.92;45.66
75668;BME280;64266;48.798;44.756;2024-02-28T05:07:23;104027.41;;;-5.72;45.39
75668;BME280;64266;48.798;44.756;2024-02-28T05:12:27;103998.06;;;-6.08;45.77
75668;BME280;64266;48.798;44.756;2024-02-28T05:17:29;104028.94;;;-6.01;46.90
75668;BME280;64266;48.798;44.756;2024-02-28T05:22:32;103996.13;;;-6.41;46.46
75668;BME280;64266;48.798;44.756;2024-02-28T05:27:37;104007.72;;;-6.63;46.34
75668;BME280;64266;48.798;44.756;2024-02-28T05:32:40;104012.81;;;-6.14;47.48
75668;BME280;64266;48.798;44.756;2024-02-28T05:37:44;103985.94;;;-5.27;44.37
75668;BME280;64266;48.798;44.756;2024-02-28T05:42:49;103983.94;;;-4.18;43.22
75668;BME280;64266;48.798;44.756;2024-02-28T05:47:52;104045.28;;;-3.03;41.01
75668;BME280;64266;48.798;44.756;2024-02-28T05:52:55;104004.34;;;-2.19;39.63
75668;BME280;64266;48.798;44.756;2024-02-28T05:57:58;104015.44;;;-1.24;37.62
75668;BME280;64266;48.798;44.756;2024-02-28T06:03:01;104024.13;;;-0.82;37.39
75668;BME280;64266;48.798;44.756;2024-02-28T06:08:04;103991.09;;;-0.61;35.44
75668;BME280;64266;48.798;44.756;2024-02-28T06:13:09;104037.00;;;0.02;34.58
75668;BME280;64266;48.798;44.756;2024-02-28T06:18:11;103987.44;;;0.02;34.91
75668;BME280;64266;48.798;44.756;2024-02-28T06:23:14;104023.75;;;0.44;35.19
75668;BME280;64266;48.798;44.756;2024-02-28T06:28:30;104030.09;;;0.76;34.97
75668;BME280;64266;48.798;44.756;2024-02-28T06:33:35;104033.34;;;0.98;34.77
75668;BME280;64266;48.798;44.756;2024-02-28T06:38:37;104031.16;;;1.07;34.51
75668;BME280;64266;48.798;44.756;2024-02-28T06:43:40;104032.75;;;1.10;34.37
75668;BME280;64266;48.798;44.756;2024-02-28T06:48:44;104034.63;;;0.89;36.13
75668;BME280;64266;48.798;44.756;2024-02-28T06:53:47;104028.47;;;0.73;34.99
75668;BME280;64266;48.798;44.756;2024-02-28T06:58:49;104036.53;;;0.50;36.01
75668;BME280;64266;48.798;44.756;2024-02-28T07:03:53;104035.13;;;0.24;36.59
75668;BME280;64266;48.798;44.756;2024-02-28T07:08:55;104038.97;;;0.16;38.22
75668;BME280;64266;48.798;44.756;2024-02-28T07:13:59;103999.91;;;-0.05;37.41
75668;BME280;64266;48.798;44.756;2024-02-28T07:19:04;103996.41;;;0.15;37.22
75668;BME280;64266;48.798;44.756;2024-02-28T07:24:08;104037.75;;;0.43;37.64
75668;BME280;64266;48.798;44.756;2024-02-28T07:29:12;104010.22;;;0.36;38.12
75668;BME280;64266;48.798;44.756;2024-02-28T07:34:15;104021.94;;;0.09;38.28
75668;BME280;64266;48.798;44.756;2024-02-28T07:39:18;103998.22;;;-0.44;39.52
75668;BME280;64266;48.798;44.756;2024-02-28T07:44:23;104030.13;;;-0.39;39.86
75668;BME280;64266;48.798;44.756;2024-02-28T07:49:27;104027.31;;;-0.75;40.43
75668;BME280;64266;48.798;44.756;2024-02-28T07:54:31;104022.78;;;-0.92;41.42
75668;BME280;64266;48.798;44.756;2024-02-28T07:59:38;103990.91;;;-1.19;42.06
75668;BME280;64266;48.798;44.756;2024-02-28T08:04:43;104019.63;;;-0.78;43.33
75668;BME280;64266;48.798;44.756;2024-02-28T08:09:47;103998.19;;;-0.85;42.59
75668;BME280;64266;48.798;44.756;2024-02-28T08:14:50;104003.19;;;-0.59;43.11
75668;BME280;64266;48.798;44.756;2024-02-28T08:19:53;104001.59;;;-0.42;43.77
75668;BME280;64266;48.798;44.756;2024-02-28T08:24:57;103969.44;;;-0.62;43.13
75668;BME280;64266;48.798;44.756;2024-02-28T08:30:01;103997.00;;;-0.17;43.87
75668;BME280;64266;48.798;44.756;2024-02-28T08:35:08;103962.75;;;-0.10;44.60
75668;BME280;64266;48.798;44.756;2024-02-28T08:40:11;103992.66;;;0.02;44.15
75668;BME280;64266;48.798;44.756;2024-02-28T08:45:16;103967.97;;;-0.10;44.53
75668;BME280;64266;48.798;44.756;2024-02-28T08:50:18;103985.53;;;0.24;44.96
75668;BME280;64266;48.798;44.756;2024-02-28T08:55:21;103898.59;;;0.05;45.43
75668;BME280;64266;48.798;44.756;2024-02-28T09:00:24;103899.00;;;0.15;44.22
75668;BME280;64266;48.798;44.756;2024-02-28T09:05:28;103931.69;;;0.40;45.23
75668;BME280;64266;48.798;44.756;2024-02-28T09:10:31;103957.84;;;0.58;45.78
75668;BME280;64266;48.798;44.756;2024-02-28T09:15:37;103969.47;;;0.69;46.63
75668;BME280;64266;48.798;44.756;2024-02-28T09:20:41;103958.66;;;0.94;46.43
75668;BME280;64266;48.798;44.756;2024-02-28T09:25:44;103844.38;;;0.29;45.73
75668;BME280;64266;48.798;44.756;2024-02-28T09:30:49;103934.78;;;1.01;45.85
75668;BME280;64266;48.798;44.756;2024-02-28T09:35:55;103917.94;;;1.07;45.17
75668;BME280;64266;48.798;44.756;2024-02-28T09:40:58;103925.84;;;1.23;46.08
75668;BME280;64266;48.798;44.756;2024-02-28T09:46:04;103896.00;;;1.09;45.10
75668;BME280;64266;48.798;44.756;2024-02-28T09:51:08;103891.00;;;1.05;45.20
75668;BME280;64266;48.798;44.756;2024-02-28T09:56:16;103911.22;;;1.19;45.66
75668;BME280;64266;48.798;44.756;2024-02-28T10:01:19;103882.25;;;1.06;45.30
75668;BME280;64266;48.798;44.756;2024-02-28T10:06:24;103911.53;;;1.13;45.85
75668;BME280;64266;48.798;44.756;2024-02-28T10:11:28;103908.66;;;1.34;46.49
75668;BME280;64266;48.798;44.756;2024-02-28T10:16:56;103904.75;;;1.58;46.06
75668;BME280;64266;48.798;44.756;2024-02-28T10:21:59;103886.50;;;1.41;46.26
75668;BME280;64266;48.798;44.756;2024-02-28T10:27:03;103878.72;;;1.40;45.52
75668;BME280;64266;48.798;44.756;2024-02-28T10:32:06;103886.50;;;1.57;46.19
75668;BME280;64266;48.798;44.756;2024-02-28T10:37:09;103859.53;;;1.56;46.63
75668;BME280;64266;48.798;44.756;2024-02-28T10:42:12;103858.28;;;1.79;47.38
75668;BME280;64266;48.798;44.756;2024-02-28T10:47:17;103868.50;;;1.99;47.55
75668;BME280;64266;48.798;44.756;2024-02-28T10:52:22;103875.03;;;2.22;47.13
75668;BME280;64266;48.798;44.756;2024-02-28T10:57:25;103875.72;;;2.26;46.76
75668;BME280;64266;48.798;44.756;2024-02-28T11:02:29;103825.16;;;2.09;41.94
75668;BME280;64266;48.798;44.756;2024-02-28T11:07:35;103849.16;;;2.47;40.76
75668;BME280;64266;48.798;44.756;2024-02-28T11:12:38;103814.84;;;2.52;39.09
75668;BME280;64266;48.798;44.756;2024-02-28T11:17:41;103831.06;;;2.58;37.76
75668;BME280;64266;48.798;44.756;2024-02-28T11:22:44;103858.44;;;2.97;38.93
75668;BME280;64266;48.798;44.756;2024-02-28T11:27:48;103847.22;;;3.09;37.44
75668;BME280;64266;48.798;44.756;2024-02-28T11:32:53;103849.47;;;3.15;36.81
75668;BME280;64266;48.798;44.756;2024-02-28T11:37:59;103845.63;;;3.20;38.05
75668;BME280;64266;48.798;44.756;2024-02-28T11:43:03;103833.63;;;3.02;37.46
75668;BME280;64266;48.798;44.756;2024-02-28T11:48:06;103813.31;;;3.06;38.41
75668;BME280;64266;48.798;44.756;2024-02-28T11:53:10;103833.56;;;3.18;38.13
75668;BME280;64266;48.798;44.756;2024-02-28T11:58:13;103846.97;;;3.13;38.36
75668;BME280;64266;48.798;44.756;2024-02-28T12:03:23;103846.28;;;3.10;38.81
75668;BME280;64266;48.798;44.756;2024-02-28T12:08:27;103779.25;;;2.92;39.84
75668;BME280;64266;48.798;44.756;2024-02-28T12:13:32;103818.56;;;3.06;40.39
75668;BME280;64266;48.798;44.756;2024-02-28T12:18:35;103808.81;;;3.08;38.41
75668;BME280;64266;48.798;44.756;2024-02-28T12:23:39;103806.19;;;3.08;37.94
75668;BME280;64266;48.798;44.756;2024-02-28T12:28:45;103835.50;;;3.43;39.53
75668;BME280;64266;48.798;44.756;2024-02-28T12:33:48;103826.97;;;3.39;38.84
75668;BME280;64266;48.798;44.756;2024-02-28T12:38:51;103815.41;;;3.29;40.58
75668;BME280;64266;48.798;44.756;2024-02-28T12:43:54;103823.66;;;3.23;40.93
75668;BME280;64266;48.798;44.756;2024-02-28T12:48:57;103826.91;;;3.26;40.43
75668;BME280;64266;48.798;44.756;2024-02-28T12:54:00;103826.16;;;3.24;40.98
75668;BME280;64266;48.798;44.756;2024-02-28T12:59:06;103824.94;;;3.16;41.46
75668;BME280;64266;48.798;44.756;2024-02-28T13:04:11;103813.81;;;3.12;42.19
75668;BME280;64266;48.798;44.756;2024-02-28T13:09:15;103805.84;;;3.00;41.60
75668;BME280;64266;48.798;44.756;2024-02-28T13:14:19;103798.34;;;2.80;42.96
75668;BME280;64266;48.798;44.756;2024-02-28T13:19:22;103775.94;;;2.60;42.94
75668;BME280;64266;48.798;44.756;2024-02-28T13:24:24;103808.75;;;2.95;43.83
75668;BME280;64266;48.798;44.756;2024-02-28T13:29:28;103798.91;;;2.85;44.03
75668;BME280;64266;48.798;44.756;2024-02-28T13:34:31;103770.44;;;2.64;44.97
75668;BME280;64266;48.798;44.756;2024-02-28T13:39:35;103794.88;;;2.79;44.80
75668;BME280;64266;48.798;44.756;2024-02-28T13:44:39;103799.63;;;2.72;44.67
75668;BME280;64266;48.798;44.756;2024-02-28T13:49:46;103798.41;;;2.64;46.00
75668;BME280;64266;48.798;44.756;2024-02-28T13:54:49;103807.06;;;2.50;44.91
75668;BME280;64266;48.798;44.756;2024-02-28T13:59:55;103792.47;;;2.46;46.42
75668;BME280;64266;48.798;44.756;2024-02-28T14:04:58;103798.19;;;2.53;46.59
75668;BME280;64266;48.798;44.756;2024-02-28T14:10:06;103805.00;;;2.41;47.20
75668;BME280;64266;48.798;44.756;2024-02-28T14:15:10;103785.88;;;2.25;47.60
75668;BME280;64266;48.798;44.756;2024-02-28T14:20:14;103759.72;;;1.80;48.17
75668;BME280;64266;48.798;44.756;2024-02-28T14:25:18;103776.84;;;1.70;49.10
75668;BME280;64266;48.798;44.756;2024-02-28T14:30:24;103796.78;;;1.72;48.93
75668;BME280;64266;48.798;44.756;2024-02-28T14:35:27;103758.28;;;1.27;50.04
75668;BME280;64266;48.798;44.756;2024-02-28T14:40:30;103790.59;;;1.42;50.29
75668;BME280;64266;48.798;44.756;2024-02-28T14:45:33;103784.75;;;1.21;51.24
75668;BME280;64266;48.798;44.756;2024-02-28T14:50:36;103787.69;;;1.15;50.72
75668;BME280;64266;48.798;44.756;2024-02-28T14:55:38;103781.72;;;1.13;51.36
75668;BME280;64266;48.798;44.756;2024-02-28T15:00:41;103757.16;;;1.00;50.92
75668;BME280;64266;48.798;44.756;2024-02-28T15:05:44;103789.13;;;1.21;50.89
75668;BME280;64266;48.798;44.756;2024-02-28T15:10:47;103783.72;;;1.08;50.44
75668;BME280;64266;48.798;44.756;2024-02-28T15:15:51;103769.31;;;1.01;52.00
75668;BME280;64266;48.798;44.756;2024-02-28T15:20:54;103785.16;;;0.98;51.89
75668;BME280;64266;48.798;44.756;2024-02-28T15:26:03;103784.16;;;0.83;51.50
75668;BME280;64266;48.798;44.756;2024-02-28T15:31:08;103777.50;;;0.78;51.89
75668;BME280;64266;48.798;44.756;2024-02-28T15:36:11;103766.06;;;0.63;51.63
75668;BME280;64266;48.798;44.756;2024-02-28T15:41:14;103747.91;;;0.27;51.93
75668;BME280;64266;48.798;44.756;2024-02-28T15:46:17;103786.66;;;0.35;52.50
75668;BME280;64266;48.798;44.756;2024-02-28T15:51:21;103783.59;;;0.27;54.13
75668;BME280;64266;48.798;44.756;2024-02-28T15:56:24;103786.28;;;0.25;53.15
75668;BME280;64266;48.798;44.756;2024-02-28T16:01:27;103723.22;;;0.00;53.38
75668;BME280;64266;48.798;44.756;2024-02-28T16:06:31;103735.16;;;0.04;52.11
75668;BME280;64266;48.798;44.756;2024-02-28T16:11:45;103780.53;;;0.36;52.55
75668;BME280;64266;48.798;44.756;2024-02-28T16:16:51;103770.63;;;0.08;52.54
75668;BME280;64266;48.798;44.756;2024-02-28T16:21:54;103757.78;;;-0.14;52.82
75668;BME280;64266;48.798;44.756;2024-02-28T16:26:58;103781.66;;;-0.04;53.83
75668;BME280;64266;48.798;44.756;2024-02-28T16:32:02;103781.13;;;-0.29;53.99
75668;BME280;64266;48.798;44.756;2024-02-28T16:37:06;103777.63;;;-0.47;55.30
75668;BME280;64266;48.798;44.756;2024-02-28T16:42:09;103765.81;;;-0.73;56.28
75668;BME280;64266;48.798;44.756;2024-02-28T16:47:15;103763.28;;;-0.93;56.02
75668;BME280;64266;48.798;44.756;2024-02-28T16:52:20;103757.31;;;-1.15;57.11
75668;BME280;64266;48.798;44.756;2024-02-28T16:57:23;103752.25;;;-1.38;57.43
75668;BME280;64266;48.798;44.756;2024-02-28T17:02:26;103780.19;;;-1.42;57.20
75668;BME280;64266;48.798;44.756;2024-02-28T17:07:31;103785.72;;;-1.29;57.86
75668;BME280;64266;48.798;44.756;2024-02-28T17:12:36;103790.03;;;-1.48;56.91
75668;BME280;64266;48.798;44.756;2024-02-28T17:17:41;103784.13;;;-1.53;57.70
75668;BME280;64266;48.798;44.756;2024-02-28T17:22:44;103761.75;;;-1.78;58.33
75668;BME280;64266;48.798;44.756;2024-02-28T17:27:47;103758.31;;;-1.78;57.75
75668;BME280;64266;48.798;44.756;2024-02-28T17:32:50;103766.09;;;-1.78;57.20
75668;BME280;64266;48.798;44.756;2024-02-28T17:37:53;103680.19;;;-2.59;57.96
75668;BME280;64266;48.798;44.756;2024-02-28T17:42:56;103786.50;;;-2.09;57.95
75668;BME280;64266;48.798;44.756;2024-02-28T17:47:59;103777.09;;;-2.13;58.17
75668;BME280;64266;48.798;44.756;2024-02-28T17:53:02;103783.75;;;-2.28;58.10
75668;BME280;64266;48.798;44.756;2024-02-28T17:58:06;103784.13;;;-2.37;59.27
75668;BME280;64266;48.798;44.756;2024-02-28T18:03:11;103767.00;;;-2.43;58.37
75668;BME280;64266;48.798;44.756;2024-02-28T18:08:14;103769.41;;;-2.60;58.75
75668;BME280;64266;48.798;44.756;2024-02-28T18:13:19;103742.84;;;-2.90;58.29
75668;BME280;64266;48.798;44.756;2024-02-28T18:18:24;103747.31;;;-2.93;59.10
75668;BME280;64266;48.798;44.756;2024-02-28T18:23:28;103782.22;;;-2.79;58.08
75668;BME280;64266;48.798;44.756;2024-02-28T18:28:36;103762.91;;;-2.95;58.98
75668;BME280;64266;48.798;44.756;2024-02-28T18:33:40;103767.78;;;-2.86;59.23
75668;BME280;64266;48.798;44.756;2024-02-28T18:38:43;103768.28;;;-2.99;58.04
75668;BME280;64266;48.798;44.756;2024-02-28T18:43:46;103765.63;;;-2.98;58.75
75668;BME280;64266;48.798;44.756;2024-02-28T18:48:52;103763.31;;;-3.05;57.69
75668;BME280;64266;48.798;44.756;2024-02-28T18:53:56;103725.44;;;-3.34;59.14
75668;BME280;64266;48.798;44.756;2024-02-28T18:59:02;103733.44;;;-3.40;58.81
75668;BME280;64266;48.798;44.756;2024-02-28T19:04:07;103764.34;;;-3.34;58.21
75668;BME280;64266;48.798;44.756;2024-02-28T19:09:10;103719.00;;;-3.72;58.53
75668;BME280;64266;48.798;44.756;2024-02-28T19:14:14;103714.19;;;-3.83;58.77
75668;BME280;64266;48.798;44.756;2024-02-28T19:19:18;103707.88;;;-4.00;59.40
75668;BME280;64266;48.798;44.756;2024-02-28T19:24:21;103705.41;;;-4.03;58.87
75668;BME280;64266;48.798;44.756;2024-02-28T19:29:30;103744.66;;;-3.89;58.72
75668;BME280;64266;48.798;44.756;2024-02-28T19:34:32;103741.31;;;-3.93;58.76
75668;BME280;64266;48.798;44.756;2024-02-28T19:39:36;103739.34;;;-3.86;59.60
75668;BME280;64266;48.798;44.756;2024-02-28T19:44:39;103726.59;;;-3.92;58.49
75668;BME280;64266;48.798;44.756;2024-02-28T19:49:43;103732.84;;;-3.98;58.39
75668;BME280;64266;48.798;44.756;2024-02-28T19:54:47;103636.47;;;-4.61;58.98
75668;BME280;64266;48.798;44.756;2024-02-28T19:59:52;103729.63;;;-4.06;59.00
75668;BME280;64266;48.798;44.756;2024-02-28T20:04:56;103681.72;;;-4.19;59.52
75668;BME280;64266;48.798;44.756;2024-02-28T20:09:59;103674.84;;;-4.20;58.87
75668;BME280;64266;48.798;44.756;2024-02-28T20:15:06;103690.53;;;-4.24;58.80
75668;BME280;64266;48.798;44.756;2024-02-28T20:20:10;103719.34;;;-4.07;58.92
75668;BME280;64266;48.798;44.756;2024-02-28T20:25:13;103718.28;;;-4.02;58.88
75668;BME280;64266;48.798;44.756;2024-02-28T20:30:36;103712.03;;;-3.96;58.85
75668;BME280;64266;48.798;44.756;2024-02-28T20:35:39;103719.13;;;-4.01;58.20
75668;BME280;64266;48.798;44.756;2024-02-28T20:40:45;103710.38;;;-3.97;58.25
75668;BME280;64266;48.798;44.756;2024-02-28T20:45:48;103706.59;;;-4.13;57.49
75668;BME280;64266;48.798;44.756;2024-02-28T20:50:51;103692.28;;;-4.25;58.07
75668;BME280;64266;48.798;44.756;2024-02-28T20:55:54;103708.41;;;-4.17;58.19
75668;BME280;64266;48.798;44.756;2024-02-28T21:00:57;103723.25;;;-3.96;58.63
75668;BME280;64266;48.798;44.756;2024-02-28T21:06:01;103683.19;;;-4.12;57.23
75668;BME280;64266;48.798;44.756;2024-02-28T21:11:03;103685.56;;;-4.04;57.19
75668;BME280;64266;48.798;44.756;2024-02-28T21:16:07;103719.50;;;-3.87;57.02
75668;BME280;64266;48.798;44.756;2024-02-28T21:21:09;103714.94;;;-4.05;56.26
75668;BME280;64266;48.798;44.756;2024-02-28T21:26:12;103592.69;;;-4.95;56.25
75668;BME280;64266;48.798;44.756;2024-02-28T21:31:16;103709.13;;;-4.38;57.65
75668;BME280;64266;48.798;44.756;2024-02-28T21:36:19;103692.22;;;-4.50;56.69
75668;BME280;64266;48.798;44.756;2024-02-28T21:41:22;103700.75;;;-4.46;56.52
75668;BME280;64266;48.798;44.756;2024-02-28T21:46:26;103695.81;;;-4.54;58.27
75668;BME280;64266;48.798;44.756;2024-02-28T21:51:29;103704.97;;;-4.44;56.67
75668;BME280;64266;48.798;44.756;2024-02-28T21:56:32;103699.75;;;-4.42;57.09
75668;BME280;64266;48.798;44.756;2024-02-28T22:01:35;103709.03;;;-4.35;57.68
75668;BME280;64266;48.798;44.756;2024-02-28T22:06:38;103700.56;;;-4.40;56.36
75668;BME280;64266;48.798;44.756;2024-02-28T22:11:41;103690.97;;;-4.38;56.28
75668;BME280;64266;48.798;44.756;2024-02-28T22:16:44;103701.75;;;-4.24;56.88
75668;BME280;64266;48.798;44.756;2024-02-28T22:21:47;103673.16;;;-4.47;55.67
75668;BME280;64266;48.798;44.756;2024-02-28T22:26:51;103680.06;;;-4.48;55.77
75668;BME280;64266;48.798;44.756;2024-02-28T22:31:56;103672.47;;;-4.52;55.70
75668;BME280;64266;48.798;44.756;2024-02-28T22:36:59;103702.59;;;-4.50;54.93
75668;BME280;64266;48.798;44.756;2024-02-28T22:42:04;103681.81;;;-4.76;56.06
75668;BME280;64266;48.798;44.756;2024-02-28T22:47:07;103692.13;;;-4.74;56.88
75668;BME280;64266;48.798;44.756;2024-02-28T22:52:10;103697.00;;;-4.93;56.46
75668;BME280;64266;48.798;44.756;2024-02-28T22:57:12;103692.19;;;-5.05;56.71
75668;BME280;64266;48.798;44.756;2024-02-28T23:02:16;103672.88;;;-5.23;57.54
75668;BME280;64266;48.798;44.756;2024-02-28T23:07:18;103671.72;;;-5.13;58.33
75668;BME280;64266;48.798;44.756;2024-02-28T23:12:22;103687.81;;;-5.03;58.33
75668;BME280;64266;48.798;44.756;2024-02-28T23:17:25;103688.69;;;-5.04;58.54
75668;BME280;64266;48.798;44.756;2024-02-28T23:22:29;103697.13;;;-4.98;57.69
75668;BME280;64266;48.798;44.756;2024-02-28T23:27:32;103696.16;;;-4.94;58.89
75668;BME280;64266;48.798;44.756;2024-02-28T23:32:35;103679.03;;;-4.98;57.83
75668;BME280;64266;48.798;44.756;2024-02-28T23:37:40;103685.72;;;-4.90;57.74
75668;BME280;64266;48.798;44.756;2024-02-28T23:42:43;103690.31;;;-5.00;58.10
75668;BME280;64266;48.798;44.756;2024-02-28T23:47:47;103673.81;;;-5.25;57.50
75668;BME280;64266;48.798;44.756;2024-02-28T23:52:52;103670.44;;;-5.29;58.87
75668;BME280;64266;48.798;44.756;2024-02-28T23:57:54;103677.41;;;-5.31;57.40
